sensor_id;sensor_type;location;lat;lon;timestamp;temperature;humidity
14119;DHT22;7138;49.246;9.100;2024-02-14T00:02:10;3.50;99.90
14119;DHT22;7138;49.246;9.100;2024-02-14T00:04:36;3.40;99.90
14119;DHT22;7138;49.246;9.100;2024-02-14T00:07:01;3.40;99.90
14119;DHT22;7138;49.246;9.100;2024-02-14T00:09:29;3.40;99.90
14119;DHT22;7138;49.246;9.100;2024-02-14T00:11:54;3.40;99.90
14119;DHT22;7138;49.246;9.100;2024-02-14T00:14:20;3.40;99.90
14119;DHT22;7138;49.246;9.100;2024-02-14T00:16:46;3.30;99.90
14119;DHT22;7138;49.246;9.100;2024-02-14T00:19:12;3.10;99.90
14119;DHT22;7138;49.246;9.100;2024-02-14T00:21:39;3.20;99.90
14119;DHT22;7138;49.246;9.100;2024-02-14T00:24:05;3.20;99.90
14119;DHT22;7138;49.246;9.100;2024-02-14T00:26:32;3.20;99.90
14119;DHT22;7138;49.246;9.100;2024-02-14T00:28:58;3.10;99.90
14119;DHT22;7138;49.246;9.100;2024-02-14T00:31:24;3.10;99.90
14119;DHT22;7138;49.246;9.100;2024-02-14T00:33:50;3.10;99.90
14119;DHT22;7138;49.246;9.100;2024-02-14T00:36:16;2.90;99.90
14119;DHT22;7138;49.246;9.100;2024-02-14T00:38:43;2.90;99.90
14119;DHT22;7138;49.246;9.100;2024-02-14T00:41:10;2.80;99.90
14119;DHT22;7138;49.246;9.100;2024-02-14T00:43:38;2.80;99.90
14119;DHT22;7138;49.246;9.100;2024-02-14T00:46:04;2.80;99.90
14119;DHT22;7138;49.246;9.100;2024-02-14T00:48:31;2.90;99.90
14119;DHT22;7138;49.246;9.100;2024-02-14T00:50:57;2.90;99.90
14119;DHT22;7138;49.246;9.100;2024-02-14T00:53:24;2.90;99.90
14119;DHT22;7138;49.246;9.100;2024-02-14T00:55:50;3.00;99.90
14119;DHT22;7138;49.246;9.100;2024-02-14T00:58:16;2.90;99.90
14119;DHT22;7138;49.246;9.100;2024-02-14T01:00:44;3.00;99.90
14119;DHT22;7138;49.246;9.100;2024-02-14T01:03:10;3.00;99.90
14119;DHT22;7138;49.246;9.100;2024-02-14T01:05:38;3.00;99.90
14119;DHT22;7138;49.246;9.100;2024-02-14T01:08:04;3.10;99.90
14119;DHT22;7138;49.246;9.100;2024-02-14T01:10:30;3.10;99.90
14119;DHT22;7138;49.246;9.100;2024-02-14T01:12:56;3.20;99.90
14119;DHT22;7138;49.246;9.100;2024-02-14T01:15:22;3.20;99.90
14119;DHT22;7138;49.246;9.100;2024-02-14T01:17:49;3.20;99.90
14119;DHT22;7138;49.246;9.100;2024-02-14T01:20:15;3.20;99.90
14119;DHT22;7138;49.246;9.100;2024-02-14T01:22:41;3.20;99.90
14119;DHT22;7138;49.246;9.100;2024-02-14T01:25:07;3.30;99.90
14119;DHT22;7138;49.246;9.100;2024-02-14T01:27:35;3.30;99.90
14119;DHT22;7138;49.246;9.100;2024-02-14T01:30:01;3.40;99.90
14119;DHT22;7138;49.246;9.100;2024-02-14T01:32:28;3.30;99.90
14119;DHT22;7138;49.246;9.100;2024-02-14T01:34:56;3.40;99.90
14119;DHT22;7138;49.246;9.100;2024-02-14T01:37:22;3.30;99.90
14119;DHT22;7138;49.246;9.100;2024-02-14T01:39:48;3.30;99.90
14119;DHT22;7138;49.246;9.100;2024-02-14T01:42:14;3.30;99.90
14119;DHT22;7138;49.246;9.100;2024-02-14T01:44:40;3.30;99.90
14119;DHT22;7138;49.246;9.100;2024-02-14T01:47:05;3.20;99.90
14119;DHT22;7138;49.246;9.100;2024-02-14T01:49:32;3.30;99.90
14119;DHT22;7138;49.246;9.100;2024-02-14T01:52:02;3.30;99.90
14119;DHT22;7138;49.246;9.100;2024-02-14T01:54:29;3.40;99.90
14119;DHT22;7138;49.246;9.100;2024-02-14T01:56:56;3.40;99.90
14119;DHT22;7138;49.246;9.100;2024-02-14T01:59:24;3.50;99.90
14119;DHT22;7138;49.246;9.100;2024-02-14T02:01:51;3.50;99.90
14119;DHT22;7138;49.246;9.100;2024-02-14T02:04:17;3.50;99.90
14119;DHT22;7138;49.246;9.100;2024-02-14T02:06:43;3.50;99.90
14119;DHT22;7138;49.246;9.100;2024-02-14T02:09:11;3.50;99.90
14119;DHT22;7138;49.246;9.100;2024-02-14T02:11:44;3.50;99.90
14119;DHT22;7138;49.246;9.100;2024-02-14T02:14:11;3.50;99.90
14119;DHT22;7138;49.246;9.100;2024-02-14T02:16:38;3.60;99.90
14119;DHT22;7138;49.246;9.100;2024-02-14T02:19:03;3.60;99.90
14119;DHT22;7138;49.246;9.100;2024-02-14T02:21:33;3.60;99.90
14119;DHT22;7138;49.246;9.100;2024-02-14T02:24:02;3.70;99.90
14119;DHT22;7138;49.246;9.100;2024-02-14T02:26:28;3.80;99.90
14119;DHT22;7138;49.246;9.100;2024-02-14T02:28:54;3.80;99.90
14119;DHT22;7138;49.246;9.100;2024-02-14T02:31:20;3.80;99.90
14119;DHT22;7138;49.246;9.100;2024-02-14T02:33:46;3.80;99.90
14119;DHT22;7138;49.246;9.100;2024-02-14T02:36:12;3.80;99.90
14119;DHT22;7138;49.246;9.100;2024-02-14T02:38:38;3.80;99.90
14119;DHT22;7138;49.246;9.100;2024-02-14T02:41:05;3.80;99.90
14119;DHT22;7138;49.246;9.100;2024-02-14T02:43:32;3.90;99.90
14119;DHT22;7138;49.246;9.100;2024-02-14T02:45:58;3.90;99.90
14119;DHT22;7138;49.246;9.100;2024-02-14T02:48:24;3.80;99.90
14119;DHT22;7138;49.246;9.100;2024-02-14T02:50:50;3.90;99.90
14119;DHT22;7138;49.246;9.100;2024-02-14T02:53:17;3.90;99.90
14119;DHT22;7138;49.246;9.100;2024-02-14T02:55:43;3.80;99.90
14119;DHT22;7138;49.246;9.100;2024-02-14T02:58:11;3.70;99.90
14119;DHT22;7138;49.246;9.100;2024-02-14T03:00:37;3.60;99.90
14119;DHT22;7138;49.246;9.100;2024-02-14T03:03:03;3.70;99.90
14119;DHT22;7138;49.246;9.100;2024-02-14T03:05:33;3.60;99.90
14119;DHT22;7138;49.246;9.100;2024-02-14T03:07:59;3.50;99.90
14119;DHT22;7138;49.246;9.100;2024-02-14T03:10:25;3.50;99.90
14119;DHT22;7138;49.246;9.100;2024-02-14T03:12:52;3.50;99.90
14119;DHT22;7138;49.246;9.100;2024-02-14T03:15:19;3.60;99.90
14119;DHT22;7138;49.246;9.100;2024-02-14T03:17:45;3.60;99.90
14119;DHT22;7138;49.246;9.100;2024-02-14T03:20:11;3.60;99.90
14119;DHT22;7138;49.246;9.100;2024-02-14T03:22:39;3.50;99.90
14119;DHT22;7138;49.246;9.100;2024-02-14T03:25:11;3.60;99.90
14119;DHT22;7138;49.246;9.100;2024-02-14T03:27:38;3.60;99.90
14119;DHT22;7138;49.246;9.100;2024-02-14T03:30:06;3.60;99.90
14119;DHT22;7138;49.246;9.100;2024-02-14T03:32:34;3.60;99.90
14119;DHT22;7138;49.246;9.100;2024-02-14T03:35:00;3.70;99.90
14119;DHT22;7138;49.246;9.100;2024-02-14T03:37:26;3.70;99.90
14119;DHT22;7138;49.246;9.100;2024-02-14T03:39:52;3.80;99.90
14119;DHT22;7138;49.246;9.100;2024-02-14T03:42:18;3.90;99.90
14119;DHT22;7138;49.246;9.100;2024-02-14T03:44:45;4.00;99.90
14119;DHT22;7138;49.246;9.100;2024-02-14T03:47:11;4.00;99.90
14119;DHT22;7138;49.246;9.100;2024-02-14T03:49:40;4.00;99.90
14119;DHT22;7138;49.246;9.100;2024-02-14T03:52:06;4.10;99.90
14119;DHT22;7138;49.246;9.100;2024-02-14T03:54:35;4.10;99.90
14119;DHT22;7138;49.246;9.100;2024-02-14T03:57:01;4.10;99.90
14119;DHT22;7138;49.246;9.100;2024-02-14T03:59:27;4.20;99.90
14119;DHT22;7138;49.246;9.100;2024-02-14T04:01:52;4.20;99.90
14119;DHT22;7138;49.246;9.100;2024-02-14T04:04:18;4.20;99.90
14119;DHT22;7138;49.246;9.100;2024-02-14T04:06:46;4.30;99.90
14119;DHT22;7138;49.246;9.100;2024-02-14T04:09:12;4.30;99.90
14119;DHT22;7138;49.246;9.100;2024-02-14T04:11:37;4.30;99.90
14119;DHT22;7138;49.246;9.100;2024-02-14T04:14:03;4.30;99.90
14119;DHT22;7138;49.246;9.100;2024-02-14T04:16:29;4.30;99.90
14119;DHT22;7138;49.246;9.100;2024-02-14T04:18:55;4.30;99.90
14119;DHT22;7138;49.246;9.100;2024-02-14T04:21:21;4.30;99.90
14119;DHT22;7138;49.246;9.100;2024-02-14T04:23:48;4.40;99.90
14119;DHT22;7138;49.246;9.100;2024-02-14T04:26:19;4.40;99.90
14119;DHT22;7138;49.246;9.100;2024-02-14T04:28:45;4.40;99.90
14119;DHT22;7138;49.246;9.100;2024-02-14T04:31:11;4.40;99.90
14119;DHT22;7138;49.246;9.100;2024-02-14T04:33:37;4.50;99.90
14119;DHT22;7138;49.246;9.100;2024-02-14T04:36:03;4.50;99.90
14119;DHT22;7138;49.246;9.100;2024-02-14T04:38:30;4.50;99.90
14119;DHT22;7138;49.246;9.100;2024-02-14T04:40:58;4.50;99.90
14119;DHT22;7138;49.246;9.100;2024-02-14T04:43:24;4.60;99.90
14119;DHT22;7138;49.246;9.100;2024-02-14T04:45:49;4.60;99.90
14119;DHT22;7138;49.246;9.100;2024-02-14T04:48:16;4.60;99.90
14119;DHT22;7138;49.246;9.100;2024-02-14T04:50:42;4.60;99.90
14119;DHT22;7138;49.246;9.100;2024-02-14T04:53:07;4.60;99.90
14119;DHT22;7138;49.246;9.100;2024-02-14T04:55:33;4.60;99.90
14119;DHT22;7138;49.246;9.100;2024-02-14T04:58:00;4.70;99.90
14119;DHT22;7138;49.246;9.100;2024-02-14T05:00:26;4.70;99.90
14119;DHT22;7138;49.246;9.100;2024-02-14T05:02:53;4.70;99.90
14119;DHT22;7138;49.246;9.100;2024-02-14T05:05:19;4.70;99.90
14119;DHT22;7138;49.246;9.100;2024-02-14T05:07:46;4.80;99.90
14119;DHT22;7138;49.246;9.100;2024-02-14T05:10:12;4.80;99.90
14119;DHT22;7138;49.246;9.100;2024-02-14T05:12:39;4.80;99.90
14119;DHT22;7138;49.246;9.100;2024-02-14T05:15:07;4.80;99.90
14119;DHT22;7138;49.246;9.100;2024-02-14T05:17:34;4.90;99.90
14119;DHT22;7138;49.246;9.100;2024-02-14T05:20:00;4.90;99.90
14119;DHT22;7138;49.246;9.100;2024-02-14T05:22:26;4.90;99.90
14119;DHT22;7138;49.246;9.100;2024-02-14T05:24:53;4.90;99.90
14119;DHT22;7138;49.246;9.100;2024-02-14T05:27:18;4.90;99.90
14119;DHT22;7138;49.246;9.100;2024-02-14T05:29:44;5.00;99.90
14119;DHT22;7138;49.246;9.100;2024-02-14T05:32:11;5.00;99.90
14119;DHT22;7138;49.246;9.100;2024-02-14T05:34:37;5.00;99.90
14119;DHT22;7138;49.246;9.100;2024-02-14T05:37:03;5.00;99.90
14119;DHT22;7138;49.246;9.100;2024-02-14T05:39:31;5.00;99.90
14119;DHT22;7138;49.246;9.100;2024-02-14T05:41:56;5.00;99.90
14119;DHT22;7138;49.246;9.100;2024-02-14T05:44:22;5.00;99.90
14119;DHT22;7138;49.246;9.100;2024-02-14T05:46:48;5.10;99.90
14119;DHT22;7138;49.246;9.100;2024-02-14T05:49:15;5.10;99.90
14119;DHT22;7138;49.246;9.100;2024-02-14T05:51:41;5.10;99.90
14119;DHT22;7138;49.246;9.100;2024-02-14T05:54:07;5.20;99.90
14119;DHT22;7138;49.246;9.100;2024-02-14T05:56:33;5.30;99.90
14119;DHT22;7138;49.246;9.100;2024-02-14T05:58:58;5.20;99.90
14119;DHT22;7138;49.246;9.100;2024-02-14T06:01:24;5.20;99.90
14119;DHT22;7138;49.246;9.100;2024-02-14T06:03:50;5.10;99.90
14119;DHT22;7138;49.246;9.100;2024-02-14T06:06:17;5.00;99.90
14119;DHT22;7138;49.246;9.100;2024-02-14T06:08:43;5.00;99.90
14119;DHT22;7138;49.246;9.100;2024-02-14T06:11:10;5.10;99.90
14119;DHT22;7138;49.246;9.100;2024-02-14T06:13:35;5.00;99.90
14119;DHT22;7138;49.246;9.100;2024-02-14T06:16:01;5.00;99.90
14119;DHT22;7138;49.246;9.100;2024-02-14T06:18:28;5.10;99.90
14119;DHT22;7138;49.246;9.100;2024-02-14T06:20:53;5.10;99.90
14119;DHT22;7138;49.246;9.100;2024-02-14T06:23:20;5.10;99.90
14119;DHT22;7138;49.246;9.100;2024-02-14T06:25:46;5.00;99.90
14119;DHT22;7138;49.246;9.100;2024-02-14T06:28:12;4.90;99.90
14119;DHT22;7138;49.246;9.100;2024-02-14T06:30:38;4.80;99.90
14119;DHT22;7138;49.246;9.100;2024-02-14T06:33:04;4.80;99.90
14119;DHT22;7138;49.246;9.100;2024-02-14T06:35:30;4.90;99.90
14119;DHT22;7138;49.246;9.100;2024-02-14T06:37:56;4.80;99.90
14119;DHT22;7138;49.246;9.100;2024-02-14T06:40:23;4.90;99.90
14119;DHT22;7138;49.246;9.100;2024-02-14T06:42:50;4.90;99.90
14119;DHT22;7138;49.246;9.100;2024-02-14T06:45:17;5.00;99.90
14119;DHT22;7138;49.246;9.100;2024-02-14T06:47:43;5.00;99.90
14119;DHT22;7138;49.246;9.100;2024-02-14T06:50:09;5.10;99.90
14119;DHT22;7138;49.246;9.100;2024-02-14T06:52:35;5.10;99.90
14119;DHT22;7138;49.246;9.100;2024-02-14T06:55:01;5.10;99.90
14119;DHT22;7138;49.246;9.100;2024-02-14T06:57:30;5.10;99.90
14119;DHT22;7138;49.246;9.100;2024-02-14T06:59:56;5.10;99.90
14119;DHT22;7138;49.246;9.100;2024-02-14T07:02:22;5.20;99.90
14119;DHT22;7138;49.246;9.100;2024-02-14T07:04:48;5.20;99.90
14119;DHT22;7138;49.246;9.100;2024-02-14T07:07:14;5.10;99.90
14119;DHT22;7138;49.246;9.100;2024-02-14T07:09:40;5.10;99.90
14119;DHT22;7138;49.246;9.100;2024-02-14T07:12:06;5.00;99.90
14119;DHT22;7138;49.246;9.100;2024-02-14T07:14:34;5.00;99.90
14119;DHT22;7138;49.246;9.100;2024-02-14T07:17:00;5.10;99.90
14119;DHT22;7138;49.246;9.100;2024-02-14T07:19:25;5.10;99.90
14119;DHT22;7138;49.246;9.100;2024-02-14T07:21:51;5.10;99.90
14119;DHT22;7138;49.246;9.100;2024-02-14T07:24:17;5.10;99.90
14119;DHT22;7138;49.246;9.100;2024-02-14T07:26:43;5.20;99.90
14119;DHT22;7138;49.246;9.100;2024-02-14T07:29:10;5.20;99.90
14119;DHT22;7138;49.246;9.100;2024-02-14T07:31:37;5.30;99.90
14119;DHT22;7138;49.246;9.100;2024-02-14T07:34:03;5.40;99.90
14119;DHT22;7138;49.246;9.100;2024-02-14T07:36:29;5.40;99.90
14119;DHT22;7138;49.246;9.100;2024-02-14T07:38:55;5.50;99.90
14119;DHT22;7138;49.246;9.100;2024-02-14T07:41:20;5.50;99.90
14119;DHT22;7138;49.246;9.100;2024-02-14T07:43:46;5.50;99.90
14119;DHT22;7138;49.246;9.100;2024-02-14T07:46:16;5.50;99.90
14119;DHT22;7138;49.246;9.100;2024-02-14T07:48:45;5.50;99.90
14119;DHT22;7138;49.246;9.100;2024-02-14T07:51:11;5.60;99.90
14119;DHT22;7138;49.246;9.100;2024-02-14T07:53:37;5.80;99.90
14119;DHT22;7138;49.246;9.100;2024-02-14T07:56:03;5.90;99.90
14119;DHT22;7138;49.246;9.100;2024-02-14T07:58:30;5.90;99.90
14119;DHT22;7138;49.246;9.100;2024-02-14T08:00:55;5.90;99.90
14119;DHT22;7138;49.246;9.100;2024-02-14T08:03:21;6.00;99.90
14119;DHT22;7138;49.246;9.100;2024-02-14T08:05:48;6.10;99.90
14119;DHT22;7138;49.246;9.100;2024-02-14T08:08:14;6.10;99.90
14119;DHT22;7138;49.246;9.100;2024-02-14T08:10:40;6.10;99.90
14119;DHT22;7138;49.246;9.100;2024-02-14T08:13:06;6.20;99.90
14119;DHT22;7138;49.246;9.100;2024-02-14T08:15:32;6.30;99.90
14119;DHT22;7138;49.246;9.100;2024-02-14T08:17:57;6.40;99.90
14119;DHT22;7138;49.246;9.100;2024-02-14T08:20:24;6.40;99.90
14119;DHT22;7138;49.246;9.100;2024-02-14T08:22:51;6.60;99.90
14119;DHT22;7138;49.246;9.100;2024-02-14T08:25:17;6.70;99.90
14119;DHT22;7138;49.246;9.100;2024-02-14T08:27:43;6.90;99.90
14119;DHT22;7138;49.246;9.100;2024-02-14T08:30:10;7.10;99.90
14119;DHT22;7138;49.246;9.100;2024-02-14T08:32:37;7.20;99.90
14119;DHT22;7138;49.246;9.100;2024-02-14T08:35:04;7.30;99.90
14119;DHT22;7138;49.246;9.100;2024-02-14T08:37:30;7.30;99.90
14119;DHT22;7138;49.246;9.100;2024-02-14T08:39:58;7.30;99.90
14119;DHT22;7138;49.246;9.100;2024-02-14T08:42:23;7.40;99.90
14119;DHT22;7138;49.246;9.100;2024-02-14T08:44:49;7.40;99.90
14119;DHT22;7138;49.246;9.100;2024-02-14T08:47:15;7.40;99.90
14119;DHT22;7138;49.246;9.100;2024-02-14T08:49:42;7.30;99.90
14119;DHT22;7138;49.246;9.100;2024-02-14T08:52:08;7.50;99.90
14119;DHT22;7138;49.246;9.100;2024-02-14T08:54:34;7.60;99.90
14119;DHT22;7138;49.246;9.100;2024-02-14T08:57:01;7.70;99.90
14119;DHT22;7138;49.246;9.100;2024-02-14T08:59:28;7.70;99.90
14119;DHT22;7138;49.246;9.100;2024-02-14T09:01:54;7.80;99.90
14119;DHT22;7138;49.246;9.100;2024-02-14T09:04:20;7.90;99.90
14119;DHT22;7138;49.246;9.100;2024-02-14T09:06:46;8.00;99.90
14119;DHT22;7138;49.246;9.100;2024-02-14T09:09:11;8.00;99.90
14119;DHT22;7138;49.246;9.100;2024-02-14T09:11:41;8.10;99.90
14119;DHT22;7138;49.246;9.100;2024-02-14T09:14:08;8.10;99.90
14119;DHT22;7138;49.246;9.100;2024-02-14T09:16:35;8.10;99.90
14119;DHT22;7138;49.246;9.100;2024-02-14T09:19:02;8.20;99.90
14119;DHT22;7138;49.246;9.100;2024-02-14T09:21:30;8.30;99.90
14119;DHT22;7138;49.246;9.100;2024-02-14T09:23:58;8.40;99.90
14119;DHT22;7138;49.246;9.100;2024-02-14T09:26:24;8.50;99.90
14119;DHT22;7138;49.246;9.100;2024-02-14T09:28:50;8.60;99.90
14119;DHT22;7138;49.246;9.100;2024-02-14T09:31:20;8.70;99.90
14119;DHT22;7138;49.246;9.100;2024-02-14T09:33:47;8.80;99.90
14119;DHT22;7138;49.246;9.100;2024-02-14T09:36:13;9.00;99.90
14119;DHT22;7138;49.246;9.100;2024-02-14T09:38:42;9.00;99.90
14119;DHT22;7138;49.246;9.100;2024-02-14T09:41:14;9.10;99.90
14119;DHT22;7138;49.246;9.100;2024-02-14T09:43:44;9.10;99.90
14119;DHT22;7138;49.246;9.100;2024-02-14T09:46:12;9.10;99.90
14119;DHT22;7138;49.246;9.100;2024-02-14T09:48:44;9.10;99.90
14119;DHT22;7138;49.246;9.100;2024-02-14T09:51:11;9.20;99.90
14119;DHT22;7138;49.246;9.100;2024-02-14T09:53:38;9.20;99.90
14119;DHT22;7138;49.246;9.100;2024-02-14T09:56:05;9.20;99.90
14119;DHT22;7138;49.246;9.100;2024-02-14T09:58:34;9.30;99.90
14119;DHT22;7138;49.246;9.100;2024-02-14T10:01:02;9.40;99.90
14119;DHT22;7138;49.246;9.100;2024-02-14T10:03:27;9.30;99.90
14119;DHT22;7138;49.246;9.100;2024-02-14T10:05:55;9.30;99.90
14119;DHT22;7138;49.246;9.100;2024-02-14T10:08:21;9.20;99.90
14119;DHT22;7138;49.246;9.100;2024-02-14T10:10:48;9.30;99.90
14119;DHT22;7138;49.246;9.100;2024-02-14T10:13:15;9.30;99.90
14119;DHT22;7138;49.246;9.100;2024-02-14T10:15:41;9.40;99.90
14119;DHT22;7138;49.246;9.100;2024-02-14T10:18:07;9.40;99.90
14119;DHT22;7138;49.246;9.100;2024-02-14T10:20:34;9.60;99.90
14119;DHT22;7138;49.246;9.100;2024-02-14T10:23:08;9.70;99.90
14119;DHT22;7138;49.246;9.100;2024-02-14T10:25:36;9.80;99.90
14119;DHT22;7138;49.246;9.100;2024-02-14T10:28:04;9.80;99.90
14119;DHT22;7138;49.246;9.100;2024-02-14T10:30:34;9.80;99.90
14119;DHT22;7138;49.246;9.100;2024-02-14T10:33:02;9.70;99.90
14119;DHT22;7138;49.246;9.100;2024-02-14T10:35:30;9.70;99.90
14119;DHT22;7138;49.246;9.100;2024-02-14T10:37:58;9.70;99.90
14119;DHT22;7138;49.246;9.100;2024-02-14T10:40:28;9.60;99.90
14119;DHT22;7138;49.246;9.100;2024-02-14T10:42:54;9.70;99.90
14119;DHT22;7138;49.246;9.100;2024-02-14T10:45:20;9.70;99.90
14119;DHT22;7138;49.246;9.100;2024-02-14T10:47:47;9.60;99.90
14119;DHT22;7138;49.246;9.100;2024-02-14T10:50:15;9.70;99.90
14119;DHT22;7138;49.246;9.100;2024-02-14T10:52:42;9.60;99.90
14119;DHT22;7138;49.246;9.100;2024-02-14T10:55:11;9.60;99.90
14119;DHT22;7138;49.246;9.100;2024-02-14T10:57:39;9.70;99.90
14119;DHT22;7138;49.246;9.100;2024-02-14T11:00:08;9.60;99.90
14119;DHT22;7138;49.246;9.100;2024-02-14T11:02:36;9.40;99.90
14119;DHT22;7138;49.246;9.100;2024-02-14T11:05:04;9.40;99.90
14119;DHT22;7138;49.246;9.100;2024-02-14T11:07:32;9.40;99.90
14119;DHT22;7138;49.246;9.100;2024-02-14T11:10:04;9.30;99.90
14119;DHT22;7138;49.246;9.100;2024-02-14T11:12:33;9.10;99.90
14119;DHT22;7138;49.246;9.100;2024-02-14T11:15:08;9.20;99.90
14119;DHT22;7138;49.246;9.100;2024-02-14T11:17:35;9.30;99.90
14119;DHT22;7138;49.246;9.100;2024-02-14T11:20:12;9.50;99.90
14119;DHT22;7138;49.246;9.100;2024-02-14T11:22:52;9.70;99.90
14119;DHT22;7138;49.246;9.100;2024-02-14T11:25:24;9.90;99.90
14119;DHT22;7138;49.246;9.100;2024-02-14T11:27:55;9.90;99.90
14119;DHT22;7138;49.246;9.100;2024-02-14T11:30:34;10.30;99.90
14119;DHT22;7138;49.246;9.100;2024-02-14T11:33:12;10.50;99.90
14119;DHT22;7138;49.246;9.100;2024-02-14T11:35:40;10.20;99.90
14119;DHT22;7138;49.246;9.100;2024-02-14T11:38:07;10.00;99.90
14119;DHT22;7138;49.246;9.100;2024-02-14T11:40:33;9.80;99.90
14119;DHT22;7138;49.246;9.100;2024-02-14T11:42:59;9.90;99.90
14119;DHT22;7138;49.246;9.100;2024-02-14T11:45:25;9.70;99.90
14119;DHT22;7138;49.246;9.100;2024-02-14T11:47:52;9.60;99.90
14119;DHT22;7138;49.246;9.100;2024-02-14T11:50:18;9.50;99.90
14119;DHT22;7138;49.246;9.100;2024-02-14T11:52:44;9.30;99.90
14119;DHT22;7138;49.246;9.100;2024-02-14T11:55:10;9.50;99.90
14119;DHT22;7138;49.246;9.100;2024-02-14T11:57:40;9.50;99.90
14119;DHT22;7138;49.246;9.100;2024-02-14T12:00:07;9.50;99.90
14119;DHT22;7138;49.246;9.100;2024-02-14T12:02:33;9.70;99.90
14119;DHT22;7138;49.246;9.100;2024-02-14T12:05:03;9.70;99.90
14119;DHT22;7138;49.246;9.100;2024-02-14T12:07:30;9.60;99.90
14119;DHT22;7138;49.246;9.100;2024-02-14T12:09:56;9.70;99.90
14119;DHT22;7138;49.246;9.100;2024-02-14T12:12:22;9.90;99.90
14119;DHT22;7138;49.246;9.100;2024-02-14T12:14:51;9.90;99.90
14119;DHT22;7138;49.246;9.100;2024-02-14T12:17:17;10.10;99.90
14119;DHT22;7138;49.246;9.100;2024-02-14T12:19:44;10.30;99.90
14119;DHT22;7138;49.246;9.100;2024-02-14T12:22:11;10.40;99.90
14119;DHT22;7138;49.246;9.100;2024-02-14T12:24:43;10.40;99.90
14119;DHT22;7138;49.246;9.100;2024-02-14T12:27:09;10.30;99.90
14119;DHT22;7138;49.246;9.100;2024-02-14T12:29:35;10.60;99.90
14119;DHT22;7138;49.246;9.100;2024-02-14T12:32:05;10.50;99.90
14119;DHT22;7138;49.246;9.100;2024-02-14T12:34:32;10.50;99.90
14119;DHT22;7138;49.246;9.100;2024-02-14T12:36:58;10.50;99.90
14119;DHT22;7138;49.246;9.100;2024-02-14T12:39:26;10.60;99.90
14119;DHT22;7138;49.246;9.100;2024-02-14T12:41:52;10.70;99.90
14119;DHT22;7138;49.246;9.100;2024-02-14T12:44:18;10.80;99.90
14119;DHT22;7138;49.246;9.100;2024-02-14T12:46:44;10.80;99.90
14119;DHT22;7138;49.246;9.100;2024-02-14T12:49:11;10.80;99.90
14119;DHT22;7138;49.246;9.100;2024-02-14T12:51:37;10.80;99.90
14119;DHT22;7138;49.246;9.100;2024-02-14T12:54:04;10.60;99.90
14119;DHT22;7138;49.246;9.100;2024-02-14T12:56:31;10.60;99.90
14119;DHT22;7138;49.246;9.100;2024-02-14T12:58:58;10.60;99.90
14119;DHT22;7138;49.246;9.100;2024-02-14T13:01:25;10.70;99.90
14119;DHT22;7138;49.246;9.100;2024-02-14T13:03:51;10.80;99.90
14119;DHT22;7138;49.246;9.100;2024-02-14T13:06:17;10.80;99.90
14119;DHT22;7138;49.246;9.100;2024-02-14T13:08:42;10.90;99.90
14119;DHT22;7138;49.246;9.100;2024-02-14T13:11:08;10.90;99.90
14119;DHT22;7138;49.246;9.100;2024-02-14T13:13:35;10.90;99.90
14119;DHT22;7138;49.246;9.100;2024-02-14T13:16:02;10.90;99.90
14119;DHT22;7138;49.246;9.100;2024-02-14T13:18:28;11.00;99.90
14119;DHT22;7138;49.246;9.100;2024-02-14T13:20:53;11.00;99.90
14119;DHT22;7138;49.246;9.100;2024-02-14T13:23:24;11.10;99.90
14119;DHT22;7138;49.246;9.100;2024-02-14T13:25:50;11.20;99.90
14119;DHT22;7138;49.246;9.100;2024-02-14T13:28:16;11.20;99.90
14119;DHT22;7138;49.246;9.100;2024-02-14T13:30:44;11.30;99.90
14119;DHT22;7138;49.246;9.100;2024-02-14T13:33:10;11.40;99.90
14119;DHT22;7138;49.246;9.100;2024-02-14T13:35:37;11.50;99.90
14119;DHT22;7138;49.246;9.100;2024-02-14T13:38:04;11.50;99.90
14119;DHT22;7138;49.246;9.100;2024-02-14T13:40:31;11.50;99.90
14119;DHT22;7138;49.246;9.100;2024-02-14T13:42:57;11.50;99.90
14119;DHT22;7138;49.246;9.100;2024-02-14T13:45:23;11.40;99.90
14119;DHT22;7138;49.246;9.100;2024-02-14T13:47:51;11.50;99.90
14119;DHT22;7138;49.246;9.100;2024-02-14T13:50:27;11.50;99.90
14119;DHT22;7138;49.246;9.100;2024-02-14T13:52:54;11.60;99.90
14119;DHT22;7138;49.246;9.100;2024-02-14T13:55:19;11.60;99.90
14119;DHT22;7138;49.246;9.100;2024-02-14T13:57:45;11.80;99.90
14119;DHT22;7138;49.246;9.100;2024-02-14T14:00:12;11.90;99.90
14119;DHT22;7138;49.246;9.100;2024-02-14T14:02:38;11.90;99.90
14119;DHT22;7138;49.246;9.100;2024-02-14T14:05:08;11.80;99.90
14119;DHT22;7138;49.246;9.100;2024-02-14T14:07:34;11.80;99.90
14119;DHT22;7138;49.246;9.100;2024-02-14T14:10:02;11.90;99.90
14119;DHT22;7138;49.246;9.100;2024-02-14T14:12:28;11.70;99.90
14119;DHT22;7138;49.246;9.100;2024-02-14T14:14:53;11.60;99.90
14119;DHT22;7138;49.246;9.100;2024-02-14T14:17:19;11.60;99.90
14119;DHT22;7138;49.246;9.100;2024-02-14T14:19:45;11.60;99.90
14119;DHT22;7138;49.246;9.100;2024-02-14T14:22:12;11.60;99.90
14119;DHT22;7138;49.246;9.100;2024-02-14T14:24:40;11.60;99.90
14119;DHT22;7138;49.246;9.100;2024-02-14T14:27:05;11.60;99.90
14119;DHT22;7138;49.246;9.100;2024-02-14T14:29:34;11.50;99.90
14119;DHT22;7138;49.246;9.100;2024-02-14T14:32:00;11.50;99.90
14119;DHT22;7138;49.246;9.100;2024-02-14T14:34:27;11.40;99.90
14119;DHT22;7138;49.246;9.100;2024-02-14T14:36:55;11.40;99.90
14119;DHT22;7138;49.246;9.100;2024-02-14T14:39:22;11.30;99.90
14119;DHT22;7138;49.246;9.100;2024-02-14T14:41:48;11.40;99.90
14119;DHT22;7138;49.246;9.100;2024-02-14T14:44:14;11.40;99.90
14119;DHT22;7138;49.246;9.100;2024-02-14T14:46:40;11.40;99.90
14119;DHT22;7138;49.246;9.100;2024-02-14T14:49:08;11.40;99.90
14119;DHT22;7138;49.246;9.100;2024-02-14T14:51:34;11.40;99.90
14119;DHT22;7138;49.246;9.100;2024-02-14T14:54:01;11.40;99.90
14119;DHT22;7138;49.246;9.100;2024-02-14T14:56:28;11.40;99.90
14119;DHT22;7138;49.246;9.100;2024-02-14T14:58:54;11.40;99.90
14119;DHT22;7138;49.246;9.100;2024-02-14T15:01:21;11.40;99.90
14119;DHT22;7138;49.246;9.100;2024-02-14T15:03:47;11.40;99.90
14119;DHT22;7138;49.246;9.100;2024-02-14T15:06:12;11.40;99.90
14119;DHT22;7138;49.246;9.100;2024-02-14T15:08:41;11.40;99.90
14119;DHT22;7138;49.246;9.100;2024-02-14T15:11:09;11.40;99.90
14119;DHT22;7138;49.246;9.100;2024-02-14T15:13:36;11.40;99.90
14119;DHT22;7138;49.246;9.100;2024-02-14T15:16:02;11.40;99.90
14119;DHT22;7138;49.246;9.100;2024-02-14T15:18:29;11.40;99.90
14119;DHT22;7138;49.246;9.100;2024-02-14T15:20:55;11.30;99.90
14119;DHT22;7138;49.246;9.100;2024-02-14T15:23:21;11.30;99.90
14119;DHT22;7138;49.246;9.100;2024-02-14T15:25:47;11.30;99.90
14119;DHT22;7138;49.246;9.100;2024-02-14T15:28:13;11.30;99.90
14119;DHT22;7138;49.246;9.100;2024-02-14T15:30:49;11.20;99.90
14119;DHT22;7138;49.246;9.100;2024-02-14T15:33:33;11.20;99.90
14119;DHT22;7138;49.246;9.100;2024-02-14T15:35:59;11.20;99.90
14119;DHT22;7138;49.246;9.100;2024-02-14T15:38:25;11.20;99.90
14119;DHT22;7138;49.246;9.100;2024-02-14T15:40:52;11.20;99.90
14119;DHT22;7138;49.246;9.100;2024-02-14T15:43:22;11.20;99.90
14119;DHT22;7138;49.246;9.100;2024-02-14T15:45:50;11.20;99.90
14119;DHT22;7138;49.246;9.100;2024-02-14T15:48:16;11.10;99.90
14119;DHT22;7138;49.246;9.100;2024-02-14T15:50:42;11.10;99.90
14119;DHT22;7138;49.246;9.100;2024-02-14T15:53:11;11.20;99.90
14119;DHT22;7138;49.246;9.100;2024-02-14T15:55:37;11.10;99.90